sensor_id;sensor_type;location;lat;lon;timestamp;P1;durP1;ratioP1;P2;durP2;ratioP2
17361;SDS011;8798;51.938;4.348;2022-12-07T00:01:04;1.87;;;0.93;;
17361;SDS011;8798;51.938;4.348;2022-12-07T00:03:35;1.43;;;0.87;;
17361;SDS011;8798;51.938;4.348;2022-12-07T00:06:04;1.93;;;0.70;;
17361;SDS011;8798;51.938;4.348;2022-12-07T00:08:33;3.17;;;1.20;;
17361;SDS011;8798;51.938;4.348;2022-12-07T00:11:02;2.43;;;1.00;;
17361;SDS011;8798;51.938;4.348;2022-12-07T00:13:30;3.97;;;1.23;;
17361;SDS011;8798;51.938;4.348;2022-12-07T00:15:59;2.57;;;1.20;;
17361;SDS011;8798;51.938;4.348;2022-12-07T00:18:28;2.47;;;1.10;;
17361;SDS011;8798;51.938;4.348;2022-12-07T00:21:00;2.87;;;1.10;;
17361;SDS011;8798;51.938;4.348;2022-12-07T00:23:28;2.37;;;0.83;;
17361;SDS011;8798;51.938;4.348;2022-12-07T00:26:02;1.93;;;1.00;;
17361;SDS011;8798;51.938;4.348;2022-12-07T00:28:31;2.50;;;1.00;;
17361;SDS011;8798;51.938;4.348;2022-12-07T00:31:00;1.70;;;0.93;;
17361;SDS011;8798;51.938;4.348;2022-12-07T00:33:32;1.27;;;0.80;;
17361;SDS011;8798;51.938;4.348;2022-12-07T00:36:01;1.43;;;0.97;;
17361;SDS011;8798;51.938;4.348;2022-12-07T00:38:32;1.60;;;0.80;;
17361;SDS011;8798;51.938;4.348;2022-12-07T00:41:02;1.53;;;0.77;;
17361;SDS011;8798;51.938;4.348;2022-12-07T00:43:31;2.67;;;1.10;;
17361;SDS011;8798;51.938;4.348;2022-12-07T00:45:59;1.73;;;1.20;;
17361;SDS011;8798;51.938;4.348;2022-12-07T00:48:27;5.07;;;0.90;;
17361;SDS011;8798;51.938;4.348;2022-12-07T00:50:55;2.33;;;1.07;;
17361;SDS011;8798;51.938;4.348;2022-12-07T00:53:25;3.70;;;1.30;;
17361;SDS011;8798;51.938;4.348;2022-12-07T00:55:53;4.93;;;1.00;;
17361;SDS011;8798;51.938;4.348;2022-12-07T00:58:22;2.70;;;1.00;;
17361;SDS011;8798;51.938;4.348;2022-12-07T01:00:50;4.07;;;0.90;;
17361;SDS011;8798;51.938;4.348;2022-12-07T01:03:18;2.70;;;0.80;;
17361;SDS011;8798;51.938;4.348;2022-12-07T01:05:49;2.97;;;1.00;;
17361;SDS011;8798;51.938;4.348;2022-12-07T01:08:18;2.03;;;0.90;;
17361;SDS011;8798;51.938;4.348;2022-12-07T01:10:47;1.83;;;1.23;;
17361;SDS011;8798;51.938;4.348;2022-12-07T01:13:15;1.27;;;0.77;;
17361;SDS011;8798;51.938;4.348;2022-12-07T01:15:44;1.53;;;0.90;;
17361;SDS011;8798;51.938;4.348;2022-12-07T01:18:12;2.20;;;1.00;;
17361;SDS011;8798;51.938;4.348;2022-12-07T01:20:39;1.33;;;0.80;;
17361;SDS011;8798;51.938;4.348;2022-12-07T01:23:07;1.10;;;0.80;;
17361;SDS011;8798;51.938;4.348;2022-12-07T01:25:35;3.20;;;0.83;;
17361;SDS011;8798;51.938;4.348;2022-12-07T01:28:04;2.27;;;0.87;;
17361;SDS011;8798;51.938;4.348;2022-12-07T01:30:32;2.70;;;0.90;;
17361;SDS011;8798;51.938;4.348;2022-12-07T01:33:00;2.87;;;0.90;;
17361;SDS011;8798;51.938;4.348;2022-12-07T01:35:28;1.13;;;0.77;;
17361;SDS011;8798;51.938;4.348;2022-12-07T01:37:55;1.30;;;0.67;;
17361;SDS011;8798;51.938;4.348;2022-12-07T01:40:23;1.07;;;0.77;;
17361;SDS011;8798;51.938;4.348;2022-12-07T01:42:51;0.77;;;0.50;;
17361;SDS011;8798;51.938;4.348;2022-12-07T01:45:36;1.67;;;0.90;;
17361;SDS011;8798;51.938;4.348;2022-12-07T01:48:06;1.93;;;0.60;;
17361;SDS011;8798;51.938;4.348;2022-12-07T01:50:36;2.03;;;0.80;;
17361;SDS011;8798;51.938;4.348;2022-12-07T01:53:06;2.33;;;0.90;;
17361;SDS011;8798;51.938;4.348;2022-12-07T01:55:38;3.40;;;1.07;;
17361;SDS011;8798;51.938;4.348;2022-12-07T01:58:09;3.10;;;0.60;;
17361;SDS011;8798;51.938;4.348;2022-12-07T02:00:40;4.40;;;0.80;;
17361;SDS011;8798;51.938;4.348;2022-12-07T02:03:09;2.23;;;0.80;;
17361;SDS011;8798;51.938;4.348;2022-12-07T02:05:41;1.60;;;0.60;;
17361;SDS011;8798;51.938;4.348;2022-12-07T02:08:11;1.00;;;0.53;;
17361;SDS011;8798;51.938;4.348;2022-12-07T02:10:40;2.60;;;0.53;;
17361;SDS011;8798;51.938;4.348;2022-12-07T02:13:08;2.20;;;0.73;;
17361;SDS011;8798;51.938;4.348;2022-12-07T02:15:44;1.23;;;0.70;;
17361;SDS011;8798;51.938;4.348;2022-12-07T02:18:22;1.60;;;0.60;;
17361;SDS011;8798;51.938;4.348;2022-12-07T02:20:57;3.60;;;0.67;;
17361;SDS011;8798;51.938;4.348;2022-12-07T02:23:35;1.33;;;0.50;;
17361;SDS011;8798;51.938;4.348;2022-12-07T02:26:19;1.73;;;0.60;;
17361;SDS011;8798;51.938;4.348;2022-12-07T02:29:13;0.77;;;0.33;;
17361;SDS011;8798;51.938;4.348;2022-12-07T02:31:46;1.33;;;0.40;;
17361;SDS011;8798;51.938;4.348;2022-12-07T02:34:22;0.70;;;0.40;;
17361;SDS011;8798;51.938;4.348;2022-12-07T02:37:00;1.47;;;0.50;;
17361;SDS011;8798;51.938;4.348;2022-12-07T02:39:33;0.57;;;0.40;;
17361;SDS011;8798;51.938;4.348;2022-12-07T02:42:09;1.23;;;0.40;;
17361;SDS011;8798;51.938;4.348;2022-12-07T02:44:43;0.60;;;0.37;;
17361;SDS011;8798;51.938;4.348;2022-12-07T02:47:13;0.67;;;0.50;;
17361;SDS011;8798;51.938;4.348;2022-12-07T02:49:44;0.93;;;0.50;;
17361;SDS011;8798;51.938;4.348;2022-12-07T02:52:13;1.40;;;0.60;;
17361;SDS011;8798;51.938;4.348;2022-12-07T02:54:41;1.47;;;0.47;;
17361;SDS011;8798;51.938;4.348;2022-12-07T02:57:13;1.10;;;0.57;;
17361;SDS011;8798;51.938;4.348;2022-12-07T03:00:03;0.90;;;0.37;;
17361;SDS011;8798;51.938;4.348;2022-12-07T03:02:37;2.23;;;0.60;;
17361;SDS011;8798;51.938;4.348;2022-12-07T03:05:20;0.67;;;0.40;;
17361;SDS011;8798;51.938;4.348;2022-12-07T03:08:11;1.40;;;0.30;;
17361;SDS011;8798;51.938;4.348;2022-12-07T03:10:46;2.60;;;0.70;;
17361;SDS011;8798;51.938;4.348;2022-12-07T03:13:22;1.67;;;0.50;;
17361;SDS011;8798;51.938;4.348;2022-12-07T03:15:55;1.37;;;0.43;;
17361;SDS011;8798;51.938;4.348;2022-12-07T03:18:30;1.53;;;0.37;;
17361;SDS011;8798;51.938;4.348;2022-12-07T03:21:04;1.83;;;0.50;;
17361;SDS011;8798;51.938;4.348;2022-12-07T03:23:36;0.97;;;0.47;;
17361;SDS011;8798;51.938;4.348;2022-12-07T03:26:06;0.63;;;0.20;;
17361;SDS011;8798;51.938;4.348;2022-12-07T03:28:39;0.70;;;0.37;;
17361;SDS011;8798;51.938;4.348;2022-12-07T03:31:15;3.30;;;0.40;;
17361;SDS011;8798;51.938;4.348;2022-12-07T03:33:48;0.43;;;0.40;;
17361;SDS011;8798;51.938;4.348;2022-12-07T03:36:20;0.97;;;0.30;;
17361;SDS011;8798;51.938;4.348;2022-12-07T03:38:54;0.80;;;0.40;;
17361;SDS011;8798;51.938;4.348;2022-12-07T03:41:28;1.67;;;0.50;;
17361;SDS011;8798;51.938;4.348;2022-12-07T03:43:59;1.83;;;0.37;;
17361;SDS011;8798;51.938;4.348;2022-12-07T03:46:30;1.63;;;0.30;;
17361;SDS011;8798;51.938;4.348;2022-12-07T03:49:06;1.90;;;0.70;;
17361;SDS011;8798;51.938;4.348;2022-12-07T03:51:40;1.83;;;0.60;;
17361;SDS011;8798;51.938;4.348;2022-12-07T03:54:14;4.17;;;0.50;;
17361;SDS011;8798;51.938;4.348;2022-12-07T03:56:46;1.50;;;0.30;;
17361;SDS011;8798;51.938;4.348;2022-12-07T03:59:16;0.40;;;0.20;;
17361;SDS011;8798;51.938;4.348;2022-12-07T04:01:51;4.40;;;0.50;;
17361;SDS011;8798;51.938;4.348;2022-12-07T04:04:20;1.47;;;0.33;;
17361;SDS011;8798;51.938;4.348;2022-12-07T04:06:48;1.30;;;0.40;;
17361;SDS011;8798;51.938;4.348;2022-12-07T04:09:16;0.20;;;0.20;;
17361;SDS011;8798;51.938;4.348;2022-12-07T04:11:44;0.63;;;0.20;;
17361;SDS011;8798;51.938;4.348;2022-12-07T04:14:12;0.20;;;0.20;;
17361;SDS011;8798;51.938;4.348;2022-12-07T04:16:47;1.03;;;0.30;;
17361;SDS011;8798;51.938;4.348;2022-12-07T04:19:16;2.27;;;0.53;;
17361;SDS011;8798;51.938;4.348;2022-12-07T04:21:45;1.80;;;0.20;;
17361;SDS011;8798;51.938;4.348;2022-12-07T04:24:13;2.07;;;0.30;;
17361;SDS011;8798;51.938;4.348;2022-12-07T04:26:42;1.50;;;0.17;;
17361;SDS011;8798;51.938;4.348;2022-12-07T04:29:11;2.50;;;0.40;;
17361;SDS011;8798;51.938;4.348;2022-12-07T04:31:38;1.70;;;0.33;;
17361;SDS011;8798;51.938;4.348;2022-12-07T04:34:08;0.70;;;0.27;;
17361;SDS011;8798;51.938;4.348;2022-12-07T04:36:37;0.10;;;0.10;;
17361;SDS011;8798;51.938;4.348;2022-12-07T04:39:05;0.37;;;0.27;;
17361;SDS011;8798;51.938;4.348;2022-12-07T04:41:34;2.10;;;0.40;;
17361;SDS011;8798;51.938;4.348;2022-12-07T04:44:03;1.63;;;0.50;;
17361;SDS011;8798;51.938;4.348;2022-12-07T04:46:33;0.10;;;0.10;;
17361;SDS011;8798;51.938;4.348;2022-12-07T04:49:01;0.50;;;0.17;;
17361;SDS011;8798;51.938;4.348;2022-12-07T04:51:30;1.23;;;0.30;;
17361;SDS011;8798;51.938;4.348;2022-12-07T04:53:58;1.97;;;0.30;;
17361;SDS011;8798;51.938;4.348;2022-12-07T04:56:26;0.53;;;0.20;;
17361;SDS011;8798;51.938;4.348;2022-12-07T04:58:54;0.70;;;0.30;;
17361;SDS011;8798;51.938;4.348;2022-12-07T05:01:22;2.40;;;0.30;;
17361;SDS011;8798;51.938;4.348;2022-12-07T05:03:51;0.30;;;0.30;;
17361;SDS011;8798;51.938;4.348;2022-12-07T05:06:19;0.93;;;0.33;;
17361;SDS011;8798;51.938;4.348;2022-12-07T05:08:48;3.40;;;0.53;;
17361;SDS011;8798;51.938;4.348;2022-12-07T05:11:16;2.10;;;0.67;;
17361;SDS011;8798;51.938;4.348;2022-12-07T05:13:58;0.67;;;0.30;;
17361;SDS011;8798;51.938;4.348;2022-12-07T05:16:26;1.73;;;0.50;;
17361;SDS011;8798;51.938;4.348;2022-12-07T05:18:54;1.07;;;0.30;;
17361;SDS011;8798;51.938;4.348;2022-12-07T05:21:22;0.50;;;0.30;;
17361;SDS011;8798;51.938;4.348;2022-12-07T05:23:51;0.17;;;0.17;;
17361;SDS011;8798;51.938;4.348;2022-12-07T05:26:19;0.30;;;0.20;;
17361;SDS011;8798;51.938;4.348;2022-12-07T05:28:49;2.63;;;0.37;;
17361;SDS011;8798;51.938;4.348;2022-12-07T05:31:17;0.30;;;0.30;;
17361;SDS011;8798;51.938;4.348;2022-12-07T05:33:46;0.43;;;0.20;;
17361;SDS011;8798;51.938;4.348;2022-12-07T05:36:13;2.00;;;0.43;;
17361;SDS011;8798;51.938;4.348;2022-12-07T05:38:42;1.53;;;0.40;;
17361;SDS011;8798;51.938;4.348;2022-12-07T05:41:14;0.30;;;0.20;;
17361;SDS011;8798;51.938;4.348;2022-12-07T05:44:01;0.20;;;0.20;;
17361;SDS011;8798;51.938;4.348;2022-12-07T05:46:29;1.40;;;0.40;;
17361;SDS011;8798;51.938;4.348;2022-12-07T05:48:57;0.50;;;0.30;;
17361;SDS011;8798;51.938;4.348;2022-12-07T05:51:25;2.23;;;0.40;;
17361;SDS011;8798;51.938;4.348;2022-12-07T05:53:55;1.03;;;0.40;;
17361;SDS011;8798;51.938;4.348;2022-12-07T05:56:24;2.70;;;0.40;;
17361;SDS011;8798;51.938;4.348;2022-12-07T05:58:52;2.03;;;0.50;;
17361;SDS011;8798;51.938;4.348;2022-12-07T06:01:38;1.23;;;0.40;;
17361;SDS011;8798;51.938;4.348;2022-12-07T06:04:07;1.10;;;0.50;;
17361;SDS011;8798;51.938;4.348;2022-12-07T06:06:35;0.67;;;0.30;;
17361;SDS011;8798;51.938;4.348;2022-12-07T06:09:04;1.30;;;0.50;;
17361;SDS011;8798;51.938;4.348;2022-12-07T06:11:33;1.57;;;0.57;;
17361;SDS011;8798;51.938;4.348;2022-12-07T06:14:19;2.93;;;0.70;;
17361;SDS011;8798;51.938;4.348;2022-12-07T06:16:46;3.53;;;0.50;;
17361;SDS011;8798;51.938;4.348;2022-12-07T06:19:15;0.63;;;0.40;;
17361;SDS011;8798;51.938;4.348;2022-12-07T06:21:43;1.87;;;0.50;;
17361;SDS011;8798;51.938;4.348;2022-12-07T06:24:11;2.47;;;0.63;;
17361;SDS011;8798;51.938;4.348;2022-12-07T06:26:41;1.70;;;0.57;;
17361;SDS011;8798;51.938;4.348;2022-12-07T06:29:09;1.50;;;0.40;;
17361;SDS011;8798;51.938;4.348;2022-12-07T06:31:41;1.27;;;0.40;;
17361;SDS011;8798;51.938;4.348;2022-12-07T06:34:09;0.93;;;0.33;;
17361;SDS011;8798;51.938;4.348;2022-12-07T06:36:39;2.73;;;0.70;;
17361;SDS011;8798;51.938;4.348;2022-12-07T06:39:07;1.23;;;0.23;;
17361;SDS011;8798;51.938;4.348;2022-12-07T06:41:35;1.60;;;0.50;;
17361;SDS011;8798;51.938;4.348;2022-12-07T06:44:05;1.60;;;0.40;;
17361;SDS011;8798;51.938;4.348;2022-12-07T06:46:33;1.63;;;0.70;;
17361;SDS011;8798;51.938;4.348;2022-12-07T06:49:02;0.87;;;0.40;;
17361;SDS011;8798;51.938;4.348;2022-12-07T06:51:30;0.97;;;0.33;;
17361;SDS011;8798;51.938;4.348;2022-12-07T06:53:58;6.03;;;0.87;;
17361;SDS011;8798;51.938;4.348;2022-12-07T06:56:26;0.60;;;0.43;;
17361;SDS011;8798;51.938;4.348;2022-12-07T06:58:55;2.23;;;0.50;;
17361;SDS011;8798;51.938;4.348;2022-12-07T07:01:24;2.40;;;0.47;;
17361;SDS011;8798;51.938;4.348;2022-12-07T07:03:52;0.80;;;0.43;;
17361;SDS011;8798;51.938;4.348;2022-12-07T07:06:20;1.57;;;0.40;;
17361;SDS011;8798;51.938;4.348;2022-12-07T07:08:48;0.90;;;0.73;;
17361;SDS011;8798;51.938;4.348;2022-12-07T07:11:15;0.60;;;0.60;;
17361;SDS011;8798;51.938;4.348;2022-12-07T07:13:44;1.67;;;0.60;;
17361;SDS011;8798;51.938;4.348;2022-12-07T07:16:12;1.47;;;0.60;;
17361;SDS011;8798;51.938;4.348;2022-12-07T07:18:41;1.73;;;0.70;;
17361;SDS011;8798;51.938;4.348;2022-12-07T07:21:09;2.50;;;0.63;;
17361;SDS011;8798;51.938;4.348;2022-12-07T07:23:37;2.67;;;0.60;;
17361;SDS011;8798;51.938;4.348;2022-12-07T07:26:05;1.13;;;0.60;;
17361;SDS011;8798;51.938;4.348;2022-12-07T07:28:33;4.37;;;0.90;;
17361;SDS011;8798;51.938;4.348;2022-12-07T07:31:01;3.10;;;0.63;;
17361;SDS011;8798;51.938;4.348;2022-12-07T07:33:29;0.70;;;0.50;;
17361;SDS011;8798;51.938;4.348;2022-12-07T07:35:58;2.40;;;0.50;;
17361;SDS011;8798;51.938;4.348;2022-12-07T07:38:26;4.27;;;0.63;;
17361;SDS011;8798;51.938;4.348;2022-12-07T07:40:54;0.60;;;0.40;;
17361;SDS011;8798;51.938;4.348;2022-12-07T07:43:22;2.13;;;0.67;;
17361;SDS011;8798;51.938;4.348;2022-12-07T07:45:50;0.93;;;0.50;;
17361;SDS011;8798;51.938;4.348;2022-12-07T07:48:17;3.13;;;0.50;;
17361;SDS011;8798;51.938;4.348;2022-12-07T07:50:45;0.90;;;0.30;;
17361;SDS011;8798;51.938;4.348;2022-12-07T07:53:14;2.97;;;0.80;;
17361;SDS011;8798;51.938;4.348;2022-12-07T07:55:49;2.97;;;0.90;;
17361;SDS011;8798;51.938;4.348;2022-12-07T07:58:21;2.13;;;0.57;;
17361;SDS011;8798;51.938;4.348;2022-12-07T08:00:49;0.90;;;0.60;;
17361;SDS011;8798;51.938;4.348;2022-12-07T08:03:17;4.93;;;0.80;;
17361;SDS011;8798;51.938;4.348;2022-12-07T08:05:45;2.13;;;0.80;;
17361;SDS011;8798;51.938;4.348;2022-12-07T08:08:14;1.17;;;0.70;;
17361;SDS011;8798;51.938;4.348;2022-12-07T08:10:42;2.37;;;0.93;;
17361;SDS011;8798;51.938;4.348;2022-12-07T08:13:10;1.40;;;0.57;;
17361;SDS011;8798;51.938;4.348;2022-12-07T08:15:38;1.17;;;0.80;;
17361;SDS011;8798;51.938;4.348;2022-12-07T08:18:07;2.73;;;0.80;;
17361;SDS011;8798;51.938;4.348;2022-12-07T08:20:35;2.70;;;0.70;;
17361;SDS011;8798;51.938;4.348;2022-12-07T08:23:04;1.30;;;0.60;;
17361;SDS011;8798;51.938;4.348;2022-12-07T08:25:34;1.33;;;0.70;;
17361;SDS011;8798;51.938;4.348;2022-12-07T08:28:02;2.60;;;0.80;;
17361;SDS011;8798;51.938;4.348;2022-12-07T08:30:30;1.53;;;0.70;;
17361;SDS011;8798;51.938;4.348;2022-12-07T08:32:58;3.07;;;0.87;;
17361;SDS011;8798;51.938;4.348;2022-12-07T08:35:26;2.57;;;0.80;;
17361;SDS011;8798;51.938;4.348;2022-12-07T08:37:54;1.30;;;0.70;;
17361;SDS011;8798;51.938;4.348;2022-12-07T08:40:24;2.53;;;0.93;;
17361;SDS011;8798;51.938;4.348;2022-12-07T08:42:53;4.53;;;1.17;;
17361;SDS011;8798;51.938;4.348;2022-12-07T08:45:21;2.03;;;0.90;;
17361;SDS011;8798;51.938;4.348;2022-12-07T08:47:53;3.30;;;0.97;;
17361;SDS011;8798;51.938;4.348;2022-12-07T08:50:25;3.90;;;1.17;;
17361;SDS011;8798;51.938;4.348;2022-12-07T08:52:54;4.50;;;1.10;;
17361;SDS011;8798;51.938;4.348;2022-12-07T08:55:25;4.40;;;0.63;;
17361;SDS011;8798;51.938;4.348;2022-12-07T08:57:54;4.40;;;0.77;;
17361;SDS011;8798;51.938;4.348;2022-12-07T09:00:24;2.17;;;0.70;;
17361;SDS011;8798;51.938;4.348;2022-12-07T09:02:53;5.00;;;0.70;;
17361;SDS011;8798;51.938;4.348;2022-12-07T09:05:21;2.50;;;0.60;;
17361;SDS011;8798;51.938;4.348;2022-12-07T09:07:50;1.70;;;0.53;;
17361;SDS011;8798;51.938;4.348;2022-12-07T09:10:22;1.40;;;0.60;;
17361;SDS011;8798;51.938;4.348;2022-12-07T09:12:50;0.80;;;0.60;;
17361;SDS011;8798;51.938;4.348;2022-12-07T09:15:20;2.40;;;0.53;;
17361;SDS011;8798;51.938;4.348;2022-12-07T09:17:47;0.63;;;0.50;;
17361;SDS011;8798;51.938;4.348;2022-12-07T09:20:15;1.37;;;0.40;;
17361;SDS011;8798;51.938;4.348;2022-12-07T09:22:47;3.00;;;0.57;;
17361;SDS011;8798;51.938;4.348;2022-12-07T09:25:15;2.10;;;0.40;;
17361;SDS011;8798;51.938;4.348;2022-12-07T09:27:43;1.67;;;0.40;;
17361;SDS011;8798;51.938;4.348;2022-12-07T09:30:11;1.77;;;0.40;;
17361;SDS011;8798;51.938;4.348;2022-12-07T09:32:40;0.77;;;0.40;;
17361;SDS011;8798;51.938;4.348;2022-12-07T09:35:08;1.73;;;0.60;;
17361;SDS011;8798;51.938;4.348;2022-12-07T09:37:36;1.80;;;0.60;;
17361;SDS011;8798;51.938;4.348;2022-12-07T09:40:04;1.37;;;0.50;;
17361;SDS011;8798;51.938;4.348;2022-12-07T09:42:34;0.83;;;0.57;;
17361;SDS011;8798;51.938;4.348;2022-12-07T09:45:04;3.83;;;0.83;;
17361;SDS011;8798;51.938;4.348;2022-12-07T09:47:34;3.00;;;0.50;;
17361;SDS011;8798;51.938;4.348;2022-12-07T09:50:05;0.60;;;0.40;;
17361;SDS011;8798;51.938;4.348;2022-12-07T09:52:39;2.53;;;0.40;;
17361;SDS011;8798;51.938;4.348;2022-12-07T09:55:09;1.60;;;0.40;;
17361;SDS011;8798;51.938;4.348;2022-12-07T09:57:38;1.97;;;0.60;;
17361;SDS011;8798;51.938;4.348;2022-12-07T10:00:10;0.90;;;0.60;;
17361;SDS011;8798;51.938;4.348;2022-12-07T10:02:41;1.37;;;0.73;;
17361;SDS011;8798;51.938;4.348;2022-12-07T10:05:13;2.20;;;0.70;;
17361;SDS011;8798;51.938;4.348;2022-12-07T10:07:49;1.87;;;0.40;;
17361;SDS011;8798;51.938;4.348;2022-12-07T10:10:17;1.53;;;0.40;;
17361;SDS011;8798;51.938;4.348;2022-12-07T10:12:54;0.93;;;0.40;;
17361;SDS011;8798;51.938;4.348;2022-12-07T10:15:37;2.87;;;0.50;;
17361;SDS011;8798;51.938;4.348;2022-12-07T10:18:26;3.13;;;0.40;;
17361;SDS011;8798;51.938;4.348;2022-12-07T10:21:10;0.63;;;0.43;;
17361;SDS011;8798;51.938;4.348;2022-12-07T10:23:40;1.97;;;0.73;;
17361;SDS011;8798;51.938;4.348;2022-12-07T10:26:26;0.93;;;0.40;;
17361;SDS011;8798;51.938;4.348;2022-12-07T10:28:58;2.50;;;0.40;;
17361;SDS011;8798;51.938;4.348;2022-12-07T10:31:28;4.83;;;0.60;;
17361;SDS011;8798;51.938;4.348;2022-12-07T10:33:57;3.33;;;0.50;;
17361;SDS011;8798;51.938;4.348;2022-12-07T10:36:34;1.70;;;0.50;;
17361;SDS011;8798;51.938;4.348;2022-12-07T10:39:04;0.67;;;0.40;;
17361;SDS011;8798;51.938;4.348;2022-12-07T10:41:52;1.03;;;0.40;;
17361;SDS011;8798;51.938;4.348;2022-12-07T10:44:22;3.93;;;0.50;;
17361;SDS011;8798;51.938;4.348;2022-12-07T10:47:03;1.37;;;0.30;;
17361;SDS011;8798;51.938;4.348;2022-12-07T10:52:48;2.93;;;0.63;;
17361;SDS011;8798;51.938;4.348;2022-12-07T10:55:29;0.40;;;0.27;;
17361;SDS011;8798;51.938;4.348;2022-12-07T10:58:14;7.93;;;0.80;;
17361;SDS011;8798;51.938;4.348;2022-12-07T11:00:54;1.50;;;0.50;;
17361;SDS011;8798;51.938;4.348;2022-12-07T11:03:29;0.30;;;0.20;;
17361;SDS011;8798;51.938;4.348;2022-12-07T11:06:10;3.50;;;0.60;;
17361;SDS011;8798;51.938;4.348;2022-12-07T11:08:50;2.80;;;0.53;;
17361;SDS011;8798;51.938;4.348;2022-12-07T11:11:30;1.07;;;0.50;;
17361;SDS011;8798;51.938;4.348;2022-12-07T11:14:04;3.10;;;0.60;;
17361;SDS011;8798;51.938;4.348;2022-12-07T11:16:48;1.70;;;0.40;;
17361;SDS011;8798;51.938;4.348;2022-12-07T11:19:26;2.70;;;0.50;;
17361;SDS011;8798;51.938;4.348;2022-12-07T11:22:03;4.17;;;0.50;;
17361;SDS011;8798;51.938;4.348;2022-12-07T11:24:40;2.90;;;0.57;;
17361;SDS011;8798;51.938;4.348;2022-12-07T11:27:18;2.73;;;0.40;;
17361;SDS011;8798;51.938;4.348;2022-12-07T11:30:02;1.30;;;0.40;;
17361;SDS011;8798;51.938;4.348;2022-12-07T11:32:45;4.30;;;0.50;;
17361;SDS011;8798;51.938;4.348;2022-12-07T11:35:32;3.90;;;0.40;;
17361;SDS011;8798;51.938;4.348;2022-12-07T11:38:14;3.40;;;0.50;;
17361;SDS011;8798;51.938;4.348;2022-12-07T11:40:53;3.07;;;0.63;;
17361;SDS011;8798;51.938;4.348;2022-12-07T11:43:42;4.13;;;0.30;;
17361;SDS011;8798;51.938;4.348;2022-12-07T11:46:20;2.93;;;0.47;;
17361;SDS011;8798;51.938;4.348;2022-12-07T11:48:53;0.30;;;0.27;;
17361;SDS011;8798;51.938;4.348;2022-12-07T11:51:25;1.77;;;0.40;;
17361;SDS011;8798;51.938;4.348;2022-12-07T11:53:59;0.93;;;0.20;;
17361;SDS011;8798;51.938;4.348;2022-12-07T11:56:34;2.27;;;0.53;;
17361;SDS011;8798;51.938;4.348;2022-12-07T11:59:06;1.23;;;0.43;;
17361;SDS011;8798;51.938;4.348;2022-12-07T12:01:43;0.57;;;0.33;;
17361;SDS011;8798;51.938;4.348;2022-12-07T12:04:22;0.37;;;0.27;;
17361;SDS011;8798;51.938;4.348;2022-12-07T12:06:55;0.47;;;0.37;;
17361;SDS011;8798;51.938;4.348;2022-12-07T12:09:25;1.30;;;0.47;;
17361;SDS011;8798;51.938;4.348;2022-12-07T12:12:11;2.63;;;0.23;;
17361;SDS011;8798;51.938;4.348;2022-12-07T12:21:08;1.23;;;0.40;;
17361;SDS011;8798;51.938;4.348;2022-12-07T12:23:39;1.43;;;0.40;;
17361;SDS011;8798;51.938;4.348;2022-12-07T12:26:14;2.13;;;0.57;;
17361;SDS011;8798;51.938;4.348;2022-12-07T12:28:52;1.67;;;0.40;;
17361;SDS011;8798;51.938;4.348;2022-12-07T12:31:32;2.00;;;0.50;;
17361;SDS011;8798;51.938;4.348;2022-12-07T12:36:58;0.83;;;0.53;;
17361;SDS011;8798;51.938;4.348;2022-12-07T12:39:26;1.50;;;0.40;;
17361;SDS011;8798;51.938;4.348;2022-12-07T12:41:55;2.10;;;0.70;;
17361;SDS011;8798;51.938;4.348;2022-12-07T12:44:42;1.83;;;0.50;;
17361;SDS011;8798;51.938;4.348;2022-12-07T12:51:05;1.83;;;0.43;;
17361;SDS011;8798;51.938;4.348;2022-12-07T12:54:10;3.40;;;0.50;;
17361;SDS011;8798;51.938;4.348;2022-12-07T12:56:42;0.43;;;0.30;;
17361;SDS011;8798;51.938;4.348;2022-12-07T12:59:22;2.40;;;0.40;;
17361;SDS011;8798;51.938;4.348;2022-12-07T13:01:58;0.63;;;0.40;;
17361;SDS011;8798;51.938;4.348;2022-12-07T13:10:29;1.23;;;0.20;;
17361;SDS011;8798;51.938;4.348;2022-12-07T13:13:03;2.47;;;0.40;;
17361;SDS011;8798;51.938;4.348;2022-12-07T13:15:50;1.83;;;0.60;;
17361;SDS011;8798;51.938;4.348;2022-12-07T13:18:25;3.07;;;0.67;;
17361;SDS011;8798;51.938;4.348;2022-12-07T13:21:39;1.43;;;0.87;;
17361;SDS011;8798;51.938;4.348;2022-12-07T13:24:10;1.13;;;0.70;;
17361;SDS011;8798;51.938;4.348;2022-12-07T13:26:41;3.37;;;0.60;;
17361;SDS011;8798;51.938;4.348;2022-12-07T13:29:11;1.20;;;0.50;;
17361;SDS011;8798;51.938;4.348;2022-12-07T13:31:41;1.70;;;0.40;;
17361;SDS011;8798;51.938;4.348;2022-12-07T13:34:29;4.07;;;0.50;;
17361;SDS011;8798;51.938;4.348;2022-12-07T13:37:01;0.90;;;0.20;;
17361;SDS011;8798;51.938;4.348;2022-12-07T13:39:44;0.90;;;0.30;;
17361;SDS011;8798;51.938;4.348;2022-12-07T13:42:15;2.90;;;0.50;;
17361;SDS011;8798;51.938;4.348;2022-12-07T13:44:54;0.60;;;0.30;;
17361;SDS011;8798;51.938;4.348;2022-12-07T13:47:30;1.23;;;0.40;;
17361;SDS011;8798;51.938;4.348;2022-12-07T13:50:21;0.33;;;0.30;;
17361;SDS011;8798;51.938;4.348;2022-12-07T13:52:55;0.30;;;0.30;;
17361;SDS011;8798;51.938;4.348;2022-12-07T13:55:25;1.63;;;0.33;;
17361;SDS011;8798;51.938;4.348;2022-12-07T13:57:54;1.17;;;0.50;;
17361;SDS011;8798;51.938;4.348;2022-12-07T14:00:23;2.80;;;0.50;;
17361;SDS011;8798;51.938;4.348;2022-12-07T14:02:54;0.40;;;0.30;;
17361;SDS011;8798;51.938;4.348;2022-12-07T14:05:24;1.77;;;0.30;;
17361;SDS011;8798;51.938;4.348;2022-12-07T14:07:56;1.13;;;0.30;;
17361;SDS011;8798;51.938;4.348;2022-12-07T14:10:25;1.43;;;0.13;;
17361;SDS011;8798;51.938;4.348;2022-12-07T14:12:54;2.97;;;0.47;;
17361;SDS011;8798;51.938;4.348;2022-12-07T14:15:23;2.37;;;0.20;;
17361;SDS011;8798;51.938;4.348;2022-12-07T14:17:54;1.77;;;0.50;;
17361;SDS011;8798;51.938;4.348;2022-12-07T14:20:29;1.40;;;0.40;;
17361;SDS011;8798;51.938;4.348;2022-12-07T14:22:59;1.50;;;0.50;;
17361;SDS011;8798;51.938;4.348;2022-12-07T14:25:44;2.20;;;0.47;;
17361;SDS011;8798;51.938;4.348;2022-12-07T14:28:25;0.43;;;0.30;;
17361;SDS011;8798;51.938;4.348;2022-12-07T14:30:54;1.80;;;0.40;;
17361;SDS011;8798;51.938;4.348;2022-12-07T14:33:22;0.93;;;0.40;;
17361;SDS011;8798;51.938;4.348;2022-12-07T14:35:51;2.00;;;0.40;;
17361;SDS011;8798;51.938;4.348;2022-12-07T14:38:22;4.63;;;0.50;;
17361;SDS011;8798;51.938;4.348;2022-12-07T14:40:50;2.97;;;0.50;;
17361;SDS011;8798;51.938;4.348;2022-12-07T14:43:20;0.87;;;0.53;;
17361;SDS011;8798;51.938;4.348;2022-12-07T14:45:48;1.50;;;0.40;;
17361;SDS011;8798;51.938;4.348;2022-12-07T14:48:16;4.50;;;0.80;;
17361;SDS011;8798;51.938;4.348;2022-12-07T14:51:03;0.40;;;0.20;;
17361;SDS011;8798;51.938;4.348;2022-12-07T14:53:53;2.80;;;0.50;;
17361;SDS011;8798;51.938;4.348;2022-12-07T14:56:22;3.00;;;0.57;;
17361;SDS011;8798;51.938;4.348;2022-12-07T14:58:50;0.57;;;0.27;;
17361;SDS011;8798;51.938;4.348;2022-12-07T15:01:18;4.37;;;0.50;;
17361;SDS011;8798;51.938;4.348;2022-12-07T15:03:46;1.63;;;0.57;;
17361;SDS011;8798;51.938;4.348;2022-12-07T15:06:15;2.20;;;0.57;;
17361;SDS011;8798;51.938;4.348;2022-12-07T15:08:44;1.70;;;0.60;;
17361;SDS011;8798;51.938;4.348;2022-12-07T15:11:14;1.73;;;0.50;;
17361;SDS011;8798;51.938;4.348;2022-12-07T15:13:42;2.07;;;0.70;;
17361;SDS011;8798;51.938;4.348;2022-12-07T15:16:24;1.93;;;0.73;;
17361;SDS011;8798;51.938;4.348;2022-12-07T15:19:02;1.73;;;1.03;;
17361;SDS011;8798;51.938;4.348;2022-12-07T15:21:50;2.77;;;1.23;;
17361;SDS011;8798;51.938;4.348;2022-12-07T15:24:17;2.07;;;1.23;;
17361;SDS011;8798;51.938;4.348;2022-12-07T15:26:47;3.67;;;1.33;;
17361;SDS011;8798;51.938;4.348;2022-12-07T15:29:15;1.23;;;0.80;;
17361;SDS011;8798;51.938;4.348;2022-12-07T15:31:48;3.10;;;0.97;;
17361;SDS011;8798;51.938;4.348;2022-12-07T15:34:23;1.50;;;1.00;;
17361;SDS011;8798;51.938;4.348;2022-12-07T15:36:51;3.03;;;1.07;;
17361;SDS011;8798;51.938;4.348;2022-12-07T15:39:19;3.90;;;1.00;;
17361;SDS011;8798;51.938;4.348;2022-12-07T15:41:49;1.90;;;0.70;;
17361;SDS011;8798;51.938;4.348;2022-12-07T15:44:17;1.17;;;0.57;;
17361;SDS011;8798;51.938;4.348;2022-12-07T15:47:03;2.20;;;0.70;;
17361;SDS011;8798;51.938;4.348;2022-12-07T15:49:31;3.97;;;0.80;;
17361;SDS011;8798;51.938;4.348;2022-12-07T15:51:59;0.87;;;0.60;;